createdAt,value
2022-10-21T00:01:02.693Z,4.66
2022-10-21T00:03:35.095Z,4.65
2022-10-21T00:06:05.655Z,4.65
2022-10-21T00:08:33.706Z,4.64
2022-10-21T00:11:04.569Z,4.64
2022-10-21T00:13:34.579Z,4.64
2022-10-21T00:16:10.981Z,4.63
2022-10-21T00:18:42.817Z,4.63
2022-10-21T00:21:13.345Z,4.63
2022-10-21T00:23:43.131Z,4.62
2022-10-21T00:26:13.297Z,4.61
2022-10-21T00:28:41.986Z,4.61
2022-10-21T00:31:12.093Z,4.59
2022-10-21T00:33:40.347Z,4.59
2022-10-21T00:36:08.836Z,4.57
2022-10-21T00:38:36.745Z,4.50
2022-10-21T00:41:04.929Z,4.50
2022-10-21T00:43:33.249Z,4.42
2022-10-21T00:46:07.929Z,4.56
2022-10-21T00:48:46.224Z,4.56
2022-10-21T00:51:17.715Z,4.58
2022-10-21T00:53:50.689Z,4.56
2022-10-21T00:56:28.070Z,4.56
2022-10-21T00:59:00.578Z,4.56
2022-10-21T01:01:28.763Z,4.56
2022-10-21T01:03:59.484Z,4.56
2022-10-21T01:06:27.718Z,4.56
2022-10-21T01:08:58.085Z,4.57
2022-10-21T01:11:29.462Z,4.56
2022-10-21T01:14:25.103Z,4.57
2022-10-21T01:17:43.984Z,4.57
2022-10-21T01:20:37.872Z,4.57
2022-10-21T01:23:30.045Z,4.54
2022-10-21T01:26:33.022Z,4.52
2022-10-21T01:29:39.021Z,4.54
2022-10-21T01:32:34.909Z,4.54
2022-10-21T01:35:08.769Z,4.54
2022-10-21T01:37:54.369Z,4.53
2022-10-21T01:40:38.412Z,4.53
2022-10-21T01:43:22.079Z,4.54
2022-10-21T01:45:56.520Z,4.55
2022-10-21T01:48:30.534Z,4.56
2022-10-21T01:51:03.146Z,4.54
2022-10-21T01:53:48.504Z,4.54
2022-10-21T01:56:18.962Z,4.57
2022-10-21T01:58:49.746Z,4.58
2022-10-21T02:01:23.592Z,4.60
2022-10-21T02:03:56.289Z,4.62
2022-10-21T02:06:26.147Z,4.63
2022-10-21T02:08:54.367Z,4.63
2022-10-21T02:11:22.733Z,4.66
2022-10-21T02:14:11.644Z,4.68
2022-10-21T02:16:41.419Z,4.69
2022-10-21T02:19:15.327Z,4.70
2022-10-21T02:21:47.303Z,4.68
2022-10-21T02:24:49.334Z,4.66
2022-10-21T02:27:18.812Z,4.69
2022-10-21T02:29:49.564Z,4.69
2022-10-21T02:32:44.843Z,4.69
2022-10-21T02:35:34.831Z,4.74
2022-10-21T02:38:25.850Z,4.79
2022-10-21T02:41:03.818Z,4.79
2022-10-21T02:43:37.256Z,4.80
2022-10-21T02:46:13.875Z,4.78
2022-10-21T02:48:45.810Z,4.77
2022-10-21T02:51:15.168Z,4.77
2022-10-21T02:53:43.804Z,4.75
2022-10-21T02:56:11.790Z,4.74
2022-10-21T02:58:39.878Z,4.80
2022-10-21T03:01:07.922Z,4.83
2022-10-21T03:03:35.957Z,4.89
2022-10-21T03:06:04.144Z,4.90
2022-10-21T03:08:32.270Z,4.88
2022-10-21T03:11:02.834Z,4.94
2022-10-21T03:13:31.028Z,4.96
2022-10-21T03:15:58.988Z,4.92
2022-10-21T03:18:26.985Z,4.96
2022-10-21T03:20:55.939Z,4.97
2022-10-21T03:23:23.925Z,4.92
2022-10-21T03:25:52.073Z,4.92
2022-10-21T03:28:20.275Z,4.97
2022-10-21T03:30:48.302Z,4.96
2022-10-21T03:33:16.320Z,4.97
2022-10-21T03:35:48.320Z,4.93
2022-10-21T03:38:16.359Z,4.99
2022-10-21T03:40:44.386Z,4.98
2022-10-21T03:43:13.824Z,4.98
2022-10-21T03:45:41.878Z,5.03
2022-10-21T03:48:09.833Z,5.06
2022-10-21T03:50:40.460Z,5.07
2022-10-21T03:53:18.580Z,5.09
2022-10-21T03:55:56.753Z,5.13
2022-10-21T03:58:26.374Z,5.13
2022-10-21T04:00:54.606Z,5.13
2022-10-21T04:03:23.230Z,5.22
2022-10-21T04:05:51.189Z,5.30
2022-10-21T04:08:19.281Z,5.37
2022-10-21T04:10:48.607Z,5.50
2022-10-21T04:13:16.934Z,5.51
2022-10-21T04:15:46.375Z,5.51
2022-10-21T04:18:14.554Z,5.53
2022-10-21T04:20:42.539Z,5.55
2022-10-21T04:23:10.559Z,5.56
2022-10-21T04:25:39.410Z,5.58
2022-10-21T04:28:07.385Z,5.63
2022-10-21T04:30:35.358Z,5.59
2022-10-21T04:33:04.590Z,5.48
2022-10-21T04:35:32.538Z,5.55
2022-10-21T04:38:01.385Z,5.53
2022-10-21T04:40:30.546Z,5.50
2022-10-21T04:42:58.463Z,5.49
2022-10-21T04:45:26.541Z,5.52
2022-10-21T04:47:54.918Z,5.56
2022-10-21T04:50:22.958Z,5.63
2022-10-21T04:52:50.990Z,5.71
2022-10-21T04:55:19.141Z,5.75
2022-10-21T04:57:47.181Z,5.80
2022-10-21T05:00:15.493Z,5.83
2022-10-21T05:02:43.898Z,5.83
2022-10-21T05:05:11.850Z,5.82
2022-10-21T05:07:39.871Z,5.70
2022-10-21T05:10:11.647Z,5.74
2022-10-21T05:12:40.634Z,5.73
2022-10-21T05:15:11.244Z,5.68
2022-10-21T05:17:40.308Z,5.75
2022-10-21T05:20:09.335Z,5.82
2022-10-21T05:22:38.105Z,5.85
2022-10-21T05:25:06.675Z,5.95
2022-10-21T05:27:34.771Z,6.10
2022-10-21T05:30:02.980Z,6.16
2022-10-21T05:32:31.694Z,6.16
2022-10-21T05:34:59.678Z,6.06
2022-10-21T05:37:27.632Z,6.04
2022-10-21T05:39:55.766Z,6.04
2022-10-21T05:42:23.779Z,6.06
2022-10-21T05:44:51.843Z,6.12
2022-10-21T05:47:20.048Z,6.18
2022-10-21T05:49:48.127Z,6.24
2022-10-21T05:52:16.170Z,6.30
2022-10-21T05:54:44.255Z,6.31
2022-10-21T05:57:12.261Z,6.40
2022-10-21T05:59:40.266Z,6.44
2022-10-21T06:02:09.793Z,6.47
2022-10-21T06:04:38.860Z,6.49
2022-10-21T06:07:07.294Z,6.52
2022-10-21T06:09:35.554Z,6.57
2022-10-21T06:12:03.475Z,6.66
2022-10-21T06:14:31.664Z,6.74
2022-10-21T06:17:00.699Z,6.62
2022-10-21T06:19:28.704Z,6.72
2022-10-21T06:21:56.639Z,6.63
2022-10-21T06:24:25.539Z,6.56
2022-10-21T06:26:53.548Z,6.57
2022-10-21T06:29:21.506Z,6.59
2022-10-21T06:31:49.778Z,6.63
2022-10-21T06:36:50.550Z,6.79
2022-10-21T06:39:19.877Z,6.88
2022-10-21T06:41:47.849Z,6.93
2022-10-21T06:44:15.781Z,6.95
2022-10-21T06:46:44.030Z,6.93
2022-10-21T06:49:12.046Z,6.96
2022-10-21T06:51:40.014Z,6.93
2022-10-21T06:54:08.276Z,6.95
2022-10-21T06:56:36.318Z,6.90
2022-10-21T06:59:04.290Z,6.88
2022-10-21T07:01:58.726Z,6.87
2022-10-21T07:04:26.442Z,6.88
2022-10-21T07:06:54.566Z,6.89
2022-10-21T07:09:22.754Z,6.87
2022-10-21T07:11:50.727Z,6.88
2022-10-21T07:14:21.076Z,6.91
2022-10-21T07:16:49.709Z,6.90
2022-10-21T07:19:18.991Z,6.97
2022-10-21T07:21:47.943Z,6.94
2022-10-21T07:24:18.769Z,6.86
2022-10-21T07:26:49.879Z,6.82
2022-10-21T07:29:18.195Z,6.80
2022-10-21T07:31:46.551Z,6.84
2022-10-21T07:34:14.579Z,6.83
2022-10-21T07:36:48.626Z,6.80
2022-10-21T07:39:18.236Z,6.76
2022-10-21T07:41:50.194Z,6.66
2022-10-21T07:44:19.914Z,6.74
2022-10-21T07:46:49.801Z,6.74
2022-10-21T07:49:19.187Z,6.76
2022-10-21T07:51:51.011Z,6.78
2022-10-21T07:54:20.244Z,6.81
2022-10-21T07:56:51.942Z,6.85
2022-10-21T07:59:22.757Z,6.89
2022-10-21T08:01:51.586Z,7.00
2022-10-21T08:04:22.613Z,7.03
2022-10-21T08:06:50.942Z,7.09
2022-10-21T08:09:19.152Z,7.16
2022-10-21T08:11:47.662Z,7.18
2022-10-21T08:14:16.808Z,7.19
2022-10-21T08:16:45.405Z,7.16
2022-10-21T08:19:24.623Z,7.20
2022-10-21T08:21:53.620Z,7.22
2022-10-21T08:24:21.901Z,7.24
2022-10-21T08:26:50.316Z,7.26
2022-10-21T08:29:18.940Z,7.24
2022-10-21T08:31:47.064Z,7.31
2022-10-21T08:34:15.049Z,7.33
2022-10-21T08:36:44.359Z,7.36
2022-10-21T08:39:12.337Z,7.34
2022-10-21T08:42:07.515Z,7.33
2022-10-21T08:45:00.158Z,7.32
2022-10-21T08:47:46.650Z,7.24
2022-10-21T08:50:24.108Z,7.29
2022-10-21T08:52:58.082Z,7.28
2022-10-21T08:55:35.311Z,7.29
2022-10-21T08:58:06.205Z,7.30
2022-10-21T09:00:43.782Z,7.29
2022-10-21T09:03:41.231Z,7.28
2022-10-21T09:06:19.589Z,7.30
2022-10-21T09:09:23.727Z,7.25
2022-10-21T09:12:32.704Z,7.26
2022-10-21T09:15:19.272Z,7.25
2022-10-21T09:18:07.964Z,7.22
2022-10-21T09:21:06.082Z,7.18
2022-10-21T09:23:54.738Z,7.08
2022-10-21T09:26:42.406Z,7.10
2022-10-21T09:29:27.633Z,7.08
2022-10-21T09:32:02.718Z,7.07
2022-10-21T09:34:42.286Z,7.05
2022-10-21T09:37:35.822Z,7.03
2022-10-21T09:40:29.108Z,6.99
2022-10-21T09:43:00.256Z,6.96
2022-10-21T09:45:39.794Z,6.95
2022-10-21T09:48:20.867Z,6.94
2022-10-21T09:51:02.478Z,6.93
2022-10-21T09:53:37.112Z,6.92
2022-10-21T09:56:18.642Z,6.77
2022-10-21T09:59:07.170Z,6.90
2022-10-21T10:01:39.003Z,6.89
2022-10-21T10:04:20.444Z,6.85
2022-10-21T10:06:48.845Z,6.76
2022-10-21T10:09:28.464Z,6.78
2022-10-21T10:12:02.277Z,6.78
2022-10-21T10:14:34.772Z,6.77
2022-10-21T10:17:23.025Z,6.71
2022-10-21T10:20:06.118Z,6.68
2022-10-21T10:22:42.359Z,6.66
2022-10-21T10:25:17.594Z,6.63
2022-10-21T10:27:59.908Z,6.61
2022-10-21T10:30:36.616Z,6.59
2022-10-21T10:33:21.230Z,6.57
2022-10-21T10:35:55.371Z,6.54
2022-10-21T10:38:56.427Z,6.51
2022-10-21T10:41:40.698Z,6.50
2022-10-21T10:44:37.732Z,6.49
2022-10-21T10:47:08.023Z,6.48
2022-10-21T10:49:42.111Z,6.40
2022-10-21T10:52:13.129Z,6.43
2022-10-21T10:54:42.975Z,6.42
2022-10-21T10:57:16.242Z,6.41
2022-10-21T11:00:10.796Z,6.37
2022-10-21T11:03:08.014Z,6.33
2022-10-21T11:05:44.728Z,6.31
2022-10-21T11:08:23.933Z,6.30
2022-10-21T11:11:03.977Z,6.26
2022-10-21T11:13:37.904Z,6.22
2022-10-21T11:16:15.578Z,6.26
2022-10-21T11:19:00.217Z,6.25
2022-10-21T11:21:46.730Z,6.24
2022-10-21T11:24:46.303Z,6.23
2022-10-21T11:27:29.290Z,6.23
2022-10-21T11:30:35.983Z,6.21
2022-10-21T11:33:18.669Z,6.21
2022-10-21T11:35:46.593Z,6.20
2022-10-21T11:38:43.766Z,6.18
2022-10-21T11:41:25.734Z,6.18
2022-10-21T11:44:02.198Z,6.16
2022-10-21T11:46:48.703Z,6.17
2022-10-21T11:49:35.155Z,6.08
2022-10-21T11:52:18.596Z,6.04
2022-10-21T11:55:14.908Z,6.10
2022-10-21T11:58:05.101Z,6.08
2022-10-21T12:00:47.097Z,6.09
2022-10-21T12:03:40.323Z,6.05
2022-10-21T12:06:39.359Z,6.01
2022-10-21T12:09:18.817Z,6.00
2022-10-21T12:11:52.365Z,6.04
2022-10-21T12:14:37.247Z,6.03
2022-10-21T12:17:13.393Z,6.04
2022-10-21T12:19:42.222Z,5.98
2022-10-21T12:22:11.780Z,6.05
2022-10-21T12:25:06.869Z,6.01
2022-10-21T12:28:07.376Z,6.00
2022-10-21T12:30:51.799Z,6.00
2022-10-21T12:33:42.535Z,6.00
2022-10-21T12:36:27.740Z,5.97
2022-10-21T12:38:58.079Z,5.96
2022-10-21T12:41:30.722Z,5.95
2022-10-21T12:44:10.386Z,5.95
2022-10-21T12:46:40.963Z,5.95
2022-10-21T12:49:11.669Z,5.93
2022-10-21T12:51:40.778Z,5.92
2022-10-21T12:54:18.698Z,5.90
2022-10-21T12:56:51.117Z,5.90
2022-10-21T12:59:33.369Z,5.88
2022-10-21T13:02:10.736Z,5.86
2022-10-21T13:04:38.649Z,5.86
2022-10-21T13:07:33.858Z,5.84
2022-10-21T13:10:01.830Z,5.83
2022-10-21T13:12:32.940Z,5.78
2022-10-21T13:15:06.325Z,5.82
2022-10-21T13:17:51.892Z,5.80
2022-10-21T13:20:23.009Z,5.79
2022-10-21T13:23:03.364Z,5.79
2022-10-21T13:25:37.112Z,5.78
2022-10-21T13:28:18.701Z,5.78
2022-10-21T13:30:49.656Z,5.78
2022-10-21T13:33:52.774Z,5.77
2022-10-21T13:36:44.442Z,5.75
2022-10-21T13:39:35.213Z,5.77
2022-10-21T13:42:16.784Z,5.76
2022-10-21T13:45:04.838Z,5.74
2022-10-21T13:47:36.048Z,5.75
2022-10-21T13:50:17.873Z,5.77
2022-10-21T13:52:47.196Z,5.77
2022-10-21T13:55:21.479Z,5.75
2022-10-21T13:57:53.174Z,5.75
2022-10-21T14:00:33.725Z,5.57
2022-10-21T14:03:06.098Z,5.72
2022-10-21T14:05:42.759Z,5.71
2022-10-21T14:08:44.482Z,5.71
2022-10-21T14:11:23.899Z,5.71
2022-10-21T14:13:52.576Z,5.69
2022-10-21T14:16:32.262Z,5.65
2022-10-21T14:19:03.479Z,5.67
2022-10-21T14:21:36.539Z,5.62
2022-10-21T14:24:08.042Z,5.64
2022-10-21T14:26:36.221Z,5.64
2022-10-21T14:29:06.167Z,5.60
2022-10-21T14:31:35.544Z,5.61
2022-10-21T14:34:07.818Z,5.59
2022-10-21T14:36:35.762Z,5.58
2022-10-21T14:39:09.975Z,5.48
2022-10-21T14:41:46.559Z,5.58
2022-10-21T14:44:27.312Z,5.58
2022-10-21T14:46:56.155Z,5.54
2022-10-21T14:49:29.636Z,5.58
2022-10-21T14:52:04.625Z,5.59
2022-10-21T14:54:35.932Z,5.60
2022-10-21T14:57:05.136Z,5.60
2022-10-21T14:59:40.786Z,5.61
2022-10-21T15:02:38.929Z,5.58
2022-10-21T15:05:37.239Z,5.61
2022-10-21T15:08:30.292Z,5.61
2022-10-21T15:11:03.204Z,5.61
2022-10-21T15:13:31.495Z,5.60
2022-10-21T15:16:01.641Z,5.56
2022-10-21T15:18:54.741Z,5.56
2022-10-21T15:21:47.307Z,5.56
2022-10-21T15:24:22.780Z,5.57
2022-10-21T15:26:53.914Z,5.50
2022-10-21T15:29:21.888Z,5.56
2022-10-21T15:31:51.701Z,5.56
2022-10-21T15:34:19.403Z,5.56
2022-10-21T15:36:47.672Z,5.57
2022-10-21T15:39:15.814Z,5.57
2022-10-21T15:41:44.234Z,5.56
2022-10-21T15:44:21.124Z,5.48
2022-10-21T15:46:58.038Z,5.56
2022-10-21T15:49:29.574Z,5.57
2022-10-21T15:51:57.678Z,5.57
2022-10-21T15:54:25.826Z,5.58
2022-10-21T15:56:56.736Z,5.59
2022-10-21T15:59:30.767Z,5.49
2022-10-21T16:02:01.300Z,5.57
2022-10-21T16:04:30.588Z,5.57
2022-10-21T16:06:58.765Z,5.54
2022-10-21T16:09:32.633Z,5.53
2022-10-21T16:12:01.565Z,5.51
2022-10-21T16:14:31.183Z,5.50
2022-10-21T16:17:00.482Z,5.50
2022-10-21T16:19:30.073Z,5.51
2022-10-21T16:21:58.067Z,5.34
2022-10-21T16:24:26.405Z,5.55
2022-10-21T16:26:54.395Z,5.56
2022-10-21T16:29:25.432Z,5.57
2022-10-21T16:31:54.531Z,5.36
2022-10-21T16:34:22.617Z,5.61
2022-10-21T16:36:50.571Z,5.64
2022-10-21T16:39:22.806Z,5.65
2022-10-21T16:41:51.430Z,5.67
2022-10-21T16:44:20.075Z,5.68
2022-10-21T16:46:54.742Z,5.70
2022-10-21T16:49:26.272Z,5.71
2022-10-21T16:51:55.700Z,5.71
2022-10-21T16:54:27.391Z,5.64
2022-10-21T16:56:55.834Z,5.73
2022-10-21T16:59:24.147Z,5.72
2022-10-21T17:01:52.971Z,5.66
2022-10-21T17:04:20.970Z,5.69
2022-10-21T17:06:49.274Z,5.68
2022-10-21T17:09:21.588Z,5.69
2022-10-21T17:11:49.523Z,5.68
2022-10-21T17:14:21.365Z,5.67
2022-10-21T17:16:50.758Z,5.69
2022-10-21T17:19:18.681Z,5.64
2022-10-21T17:21:46.975Z,5.68
2022-10-21T17:24:18.533Z,5.68
2022-10-21T17:26:46.724Z,5.68
2022-10-21T17:29:14.864Z,5.69
2022-10-21T17:31:44.046Z,5.70
2022-10-21T17:34:30.225Z,5.69
2022-10-21T17:37:01.497Z,5.70
2022-10-21T17:39:29.683Z,5.63
2022-10-21T17:41:57.666Z,5.73
2022-10-21T17:44:25.782Z,5.68
2022-10-21T17:46:55.166Z,5.75
2022-10-21T17:49:24.872Z,5.68
2022-10-21T17:51:55.122Z,5.74
2022-10-21T17:54:26.577Z,5.74
2022-10-21T17:56:57.313Z,5.74
2022-10-21T17:59:27.356Z,5.77
2022-10-21T18:01:55.365Z,5.77
2022-10-21T18:04:23.324Z,5.77
2022-10-21T18:06:51.591Z,5.79
2022-10-21T18:09:19.894Z,5.80
2022-10-21T18:11:49.958Z,5.81
2022-10-21T18:14:18.295Z,5.80
2022-10-21T18:16:46.509Z,5.80
2022-10-21T18:19:14.990Z,5.77
2022-10-21T18:21:43.215Z,5.84
2022-10-21T18:24:12.598Z,5.85
2022-10-21T18:26:41.006Z,5.66
2022-10-21T18:29:10.062Z,5.86
2022-10-21T18:31:38.678Z,5.88
2022-10-21T18:34:09.742Z,5.88
2022-10-21T18:36:37.981Z,5.88
2022-10-21T18:39:07.365Z,5.89
2022-10-21T18:41:35.839Z,5.89
2022-10-21T18:44:09.985Z,5.78
2022-10-21T18:46:41.725Z,5.93
2022-10-21T18:49:13.401Z,5.88
2022-10-21T18:51:41.951Z,5.94
2022-10-21T18:54:10.001Z,5.95
2022-10-21T18:56:37.996Z,5.95
2022-10-21T18:59:07.025Z,5.89
2022-10-21T19:01:35.000Z,5.98
2022-10-21T19:04:03.168Z,5.81
2022-10-21T19:06:41.093Z,5.99
2022-10-21T19:09:13.730Z,6.00
2022-10-21T19:11:42.927Z,6.01
2022-10-21T19:14:14.117Z,6.04
2022-10-21T19:16:44.668Z,6.04
2022-10-21T19:19:12.408Z,6.07
2022-10-21T19:21:42.830Z,6.07
2022-10-21T19:24:11.472Z,6.08
2022-10-21T19:26:42.360Z,6.08
2022-10-21T19:29:14.301Z,6.11
2022-10-21T19:31:43.774Z,6.11
2022-10-21T19:34:16.705Z,6.14
2022-10-21T19:36:45.259Z,6.15
2022-10-21T19:39:14.327Z,6.16
2022-10-21T19:41:42.726Z,5.78
2022-10-21T19:44:11.084Z,6.17
2022-10-21T19:46:39.950Z,6.18
2022-10-21T19:49:09.948Z,6.20
2022-10-21T19:51:37.871Z,6.21
2022-10-21T19:54:08.756Z,6.17
2022-10-21T19:56:36.856Z,6.19
2022-10-21T19:59:05.334Z,6.21
2022-10-21T20:01:34.753Z,6.23
2022-10-21T20:04:04.029Z,6.25
2022-10-21T20:06:35.362Z,6.26
2022-10-21T20:09:07.170Z,6.26
2022-10-21T20:11:35.317Z,6.25
2022-10-21T20:14:04.912Z,6.26
2022-10-21T20:16:40.855Z,6.27
2022-10-21T20:19:09.611Z,6.21
2022-10-21T20:21:37.969Z,6.28
2022-10-21T20:24:10.204Z,6.28
2022-10-21T20:29:11.821Z,6.28
2022-10-21T20:31:41.739Z,6.27
2022-10-21T20:34:11.242Z,6.28
2022-10-21T20:36:39.294Z,6.25
2022-10-21T20:39:07.567Z,6.27
2022-10-21T20:41:37.875Z,6.27
2022-10-21T20:44:08.859Z,6.25
2022-10-21T20:46:38.002Z,6.25
2022-10-21T20:49:07.999Z,6.25
2022-10-21T20:51:39.653Z,6.25
2022-10-21T20:54:12.272Z,6.27
2022-10-21T20:56:42.098Z,6.27
2022-10-21T20:59:14.769Z,6.27
2022-10-21T21:01:45.873Z,6.27
2022-10-21T21:04:17.083Z,6.28
2022-10-21T21:06:48.243Z,6.29
2022-10-21T21:12:08.225Z,6.30
2022-10-21T21:14:36.238Z,6.31
2022-10-21T21:17:05.077Z,6.30
2022-10-21T21:19:33.712Z,6.26
2022-10-21T21:22:01.686Z,6.14
2022-10-21T21:24:29.554Z,6.32
2022-10-21T21:26:57.840Z,6.33
2022-10-21T21:29:25.854Z,6.34
2022-10-21T21:31:53.875Z,6.34
2022-10-21T21:34:23.506Z,6.35
2022-10-21T21:36:51.459Z,6.35
2022-10-21T21:39:19.474Z,6.29
2022-10-21T21:41:48.824Z,6.33
2022-10-21T21:44:16.849Z,6.30
2022-10-21T21:46:44.765Z,6.35
2022-10-21T21:49:12.876Z,6.33
2022-10-21T21:51:40.813Z,6.34
2022-10-21T21:54:08.740Z,6.34
2022-10-21T21:56:37.699Z,6.28
2022-10-21T21:59:06.794Z,6.31
2022-10-21T22:01:34.977Z,6.34
2022-10-21T22:04:03.533Z,6.29
2022-10-21T22:06:35.386Z,6.33
2022-10-21T22:09:11.735Z,6.32
2022-10-21T22:11:39.873Z,6.26
2022-10-21T22:14:07.910Z,6.32
2022-10-21T22:16:39.543Z,6.25
2022-10-21T22:19:07.546Z,6.30
2022-10-21T22:21:35.552Z,6.29
2022-10-21T22:24:03.679Z,6.29
2022-10-21T22:26:31.789Z,6.29
2022-10-21T22:28:59.762Z,6.28
2022-10-21T22:31:30.443Z,6.26
2022-10-21T22:34:04.373Z,6.26
2022-10-21T22:36:34.954Z,6.26
2022-10-21T22:39:04.099Z,6.24
2022-10-21T22:41:32.722Z,6.27
2022-10-21T22:44:00.793Z,6.25
2022-10-21T22:46:34.319Z,6.27
2022-10-21T22:49:05.458Z,6.28
2022-10-21T22:51:35.874Z,6.27
2022-10-21T22:54:05.646Z,6.28
2022-10-21T22:56:38.871Z,6.28
2022-10-21T22:59:06.788Z,6.23
2022-10-21T23:01:34.872Z,6.29
2022-10-21T23:04:05.115Z,6.30
2022-10-21T23:06:35.039Z,6.30
2022-10-21T23:09:05.127Z,6.33
2022-10-21T23:11:33.779Z,6.33
2022-10-21T23:14:03.137Z,6.30
2022-10-21T23:16:32.514Z,6.31
2022-10-21T23:19:00.702Z,6.32
2022-10-21T23:21:29.458Z,6.33
2022-10-21T23:23:57.623Z,6.35
2022-10-21T23:26:26.403Z,6.37
2022-10-21T23:28:54.464Z,6.39
2022-10-21T23:31:22.654Z,6.41
2022-10-21T23:33:53.080Z,6.41
2022-10-21T23:36:21.043Z,6.43
2022-10-21T23:38:49.038Z,5.99
2022-10-21T23:41:17.145Z,6.45
2022-10-21T23:43:45.091Z,6.47
2022-10-21T23:46:13.168Z,6.49
2022-10-21T23:48:43.642Z,6.48
2022-10-21T23:51:11.729Z,6.49
2022-10-21T23:53:39.859Z,6.41
2022-10-21T23:56:09.281Z,6.33
2022-10-21T23:58:37.285Z,6.50
